Terminal Aerodrome Forecast
Issued by NWS

Home | Current Version | Previous Version | Text Only | Print | Product List | Glossary On
Versions: 1 2 3 4 5 6 7 8 9 10 11 12 13 14 15 16 17 18 19 20 21
000
FTUS43 KILX 230925 AAB
TAFCMI
TAF AMD
KCMI 230925Z 2309/2406 23005KT 3SM BR SKC
      TEMPO 2309/2313 1/2SM FG
     FM231500 10004KT P6SM BKN060
     FM232300 10009KT P6SM OVC015=

USA.gov is the U.S. government's official web portal to all federal, state and local government web resources and services.